sensor_id;sensor_type;location;lat;lon;timestamp;pressure;altitude;pressure_sealevel;temperature;humidity
76794;BME280;65745;50.278;18.192;2023-05-23T00:02:27;99453.83;;;11.94;65.07
76794;BME280;65745;50.278;18.192;2023-05-23T00:05:00;99453.63;;;11.90;65.43
76794;BME280;65745;50.278;18.192;2023-05-23T00:07:33;99454.14;;;11.89;65.38
76794;BME280;65745;50.278;18.192;2023-05-23T00:10:06;99450.43;;;11.79;65.73
76794;BME280;65745;50.278;18.192;2023-05-23T00:12:38;99445.38;;;11.74;67.01
76794;BME280;65745;50.278;18.192;2023-05-23T00:15:12;99445.67;;;11.71;65.96
76794;BME280;65745;50.278;18.192;2023-05-23T00:17:44;99443.78;;;11.70;66.57
76794;BME280;65745;50.278;18.192;2023-05-23T00:20:16;99438.40;;;11.67;67.06
76794;BME280;65745;50.278;18.192;2023-05-23T00:22:48;99437.94;;;11.52;66.08
76794;BME280;65745;50.278;18.192;2023-05-23T00:25:22;99438.34;;;11.40;67.88
76794;BME280;65745;50.278;18.192;2023-05-23T00:27:54;99434.34;;;11.36;66.21
76794;BME280;65745;50.278;18.192;2023-05-23T00:30:27;99433.92;;;11.29;69.03
76794;BME280;65745;50.278;18.192;2023-05-23T00:32:59;99434.89;;;11.20;68.09
76794;BME280;65745;50.278;18.192;2023-05-23T00:35:31;99430.36;;;11.16;69.06
76794;BME280;65745;50.278;18.192;2023-05-23T00:38:03;99432.82;;;11.20;67.32
76794;BME280;65745;50.278;18.192;2023-05-23T00:40:37;99431.70;;;11.31;66.85
76794;BME280;65745;50.278;18.192;2023-05-23T00:43:09;99433.19;;;11.42;66.30
76794;BME280;65745;50.278;18.192;2023-05-23T00:45:42;99434.14;;;11.51;66.05
76794;BME280;65745;50.278;18.192;2023-05-23T00:48:15;99436.34;;;11.48;65.94
76794;BME280;65745;50.278;18.192;2023-05-23T00:50:47;99437.27;;;11.36;65.90
76794;BME280;65745;50.278;18.192;2023-05-23T00:53:20;99436.87;;;11.31;66.10
76794;BME280;65745;50.278;18.192;2023-05-23T00:55:53;99433.75;;;11.28;65.88
76794;BME280;65745;50.278;18.192;2023-05-23T00:58:25;99431.77;;;11.19;65.64
76794;BME280;65745;50.278;18.192;2023-05-23T01:00:58;99431.30;;;11.06;65.99
76794;BME280;65745;50.278;18.192;2023-05-23T01:03:30;99433.27;;;10.98;67.47
76794;BME280;65745;50.278;18.192;2023-05-23T01:06:03;99431.23;;;10.85;70.22
76794;BME280;65745;50.278;18.192;2023-05-23T01:08:35;99428.70;;;10.75;69.58
76794;BME280;65745;50.278;18.192;2023-05-23T01:11:13;99431.36;;;10.81;67.89
76794;BME280;65745;50.278;18.192;2023-05-23T01:13:58;99432.02;;;10.94;67.47
76794;BME280;65745;50.278;18.192;2023-05-23T01:16:37;99426.28;;;11.05;67.87
76794;BME280;65745;50.278;18.192;2023-05-23T01:19:29;99426.00;;;10.93;67.63
76794;BME280;65745;50.278;18.192;2023-05-23T01:22:15;99428.66;;;11.02;66.92
76794;BME280;65745;50.278;18.192;2023-05-23T01:24:56;99424.34;;;11.01;66.49
76794;BME280;65745;50.278;18.192;2023-05-23T01:27:41;99425.18;;;10.99;66.29
76794;BME280;65745;50.278;18.192;2023-05-23T01:30:19;99424.69;;;10.85;69.07
76794;BME280;65745;50.278;18.192;2023-05-23T01:32:54;99419.64;;;10.66;67.60
76794;BME280;65745;50.278;18.192;2023-05-23T01:35:28;99420.95;;;10.59;68.32
76794;BME280;65745;50.278;18.192;2023-05-23T01:38:01;99422.55;;;10.49;68.96
76794;BME280;65745;50.278;18.192;2023-05-23T01:40:33;99426.80;;;10.45;67.40
76794;BME280;65745;50.278;18.192;2023-05-23T01:43:06;99430.30;;;10.50;68.50
76794;BME280;65745;50.278;18.192;2023-05-23T01:45:38;99427.04;;;10.51;68.16
76794;BME280;65745;50.278;18.192;2023-05-23T01:48:12;99426.36;;;10.51;68.04
76794;BME280;65745;50.278;18.192;2023-05-23T01:50:47;99421.59;;;10.56;68.45
76794;BME280;65745;50.278;18.192;2023-05-23T01:53:21;99422.83;;;10.58;67.86
76794;BME280;65745;50.278;18.192;2023-05-23T01:55:54;99419.72;;;10.57;68.67
76794;BME280;65745;50.278;18.192;2023-05-23T01:58:27;99417.60;;;10.54;68.00
76794;BME280;65745;50.278;18.192;2023-05-23T02:01:00;99415.39;;;10.55;67.98
76794;BME280;65745;50.278;18.192;2023-05-23T02:03:33;99414.36;;;10.55;67.43
76794;BME280;65745;50.278;18.192;2023-05-23T02:06:06;99415.73;;;10.56;67.80
76794;BME280;65745;50.278;18.192;2023-05-23T02:08:38;99410.98;;;10.47;68.14
76794;BME280;65745;50.278;18.192;2023-05-23T02:11:10;99414.37;;;10.42;68.06
76794;BME280;65745;50.278;18.192;2023-05-23T02:13:42;99417.08;;;10.39;68.06
76794;BME280;65745;50.278;18.192;2023-05-23T02:16:14;99416.97;;;10.31;69.38
76794;BME280;65745;50.278;18.192;2023-05-23T02:18:48;99411.97;;;10.18;69.35
76794;BME280;65745;50.278;18.192;2023-05-23T02:21:22;99407.03;;;10.11;69.51
76794;BME280;65745;50.278;18.192;2023-05-23T02:23:54;99404.75;;;10.08;69.40
76794;BME280;65745;50.278;18.192;2023-05-23T02:26:26;99407.59;;;10.01;70.05
76794;BME280;65745;50.278;18.192;2023-05-23T02:28:59;99404.35;;;10.04;69.19
76794;BME280;65745;50.278;18.192;2023-05-23T02:31:31;99407.59;;;10.13;68.62
76794;BME280;65745;50.278;18.192;2023-05-23T02:34:03;99405.13;;;10.10;68.75
76794;BME280;65745;50.278;18.192;2023-05-23T02:36:35;99403.59;;;10.12;68.52
76794;BME280;65745;50.278;18.192;2023-05-23T02:39:09;99407.75;;;10.13;68.97
76794;BME280;65745;50.278;18.192;2023-05-23T02:41:41;99404.91;;;10.07;70.15
76794;BME280;65745;50.278;18.192;2023-05-23T02:44:13;99400.60;;;10.06;69.33
76794;BME280;65745;50.278;18.192;2023-05-23T02:46:45;99401.63;;;10.06;68.86
76794;BME280;65745;50.278;18.192;2023-05-23T02:49:18;99402.25;;;10.13;68.77
76794;BME280;65745;50.278;18.192;2023-05-23T02:51:50;99398.59;;;10.20;68.30
76794;BME280;65745;50.278;18.192;2023-05-23T02:54:22;99399.73;;;10.16;68.77
76794;BME280;65745;50.278;18.192;2023-05-23T02:56:54;99397.04;;;10.10;68.86
76794;BME280;65745;50.278;18.192;2023-05-23T02:59:28;99398.41;;;10.09;68.93
76794;BME280;65745;50.278;18.192;2023-05-23T03:02:00;99390.33;;;10.12;68.72
76794;BME280;65745;50.278;18.192;2023-05-23T03:04:32;99386.11;;;10.15;68.92
76794;BME280;65745;50.278;18.192;2023-05-23T03:07:04;99387.42;;;10.21;69.39
76794;BME280;65745;50.278;18.192;2023-05-23T03:09:46;99386.59;;;10.24;69.82
76794;BME280;65745;50.278;18.192;2023-05-23T03:12:20;99383.04;;;10.16;69.74
76794;BME280;65745;50.278;18.192;2023-05-23T03:14:52;99382.91;;;10.19;69.35
76794;BME280;65745;50.278;18.192;2023-05-23T03:17:25;99379.38;;;10.14;70.45
76794;BME280;65745;50.278;18.192;2023-05-23T03:19:59;99376.69;;;10.06;70.45
76794;BME280;65745;50.278;18.192;2023-05-23T03:22:32;99375.13;;;10.06;70.41
76794;BME280;65745;50.278;18.192;2023-05-23T03:25:07;99375.07;;;10.02;70.58
76794;BME280;65745;50.278;18.192;2023-05-23T03:27:39;99371.33;;;10.04;70.53
76794;BME280;65745;50.278;18.192;2023-05-23T03:30:13;99370.49;;;10.07;70.19
76794;BME280;65745;50.278;18.192;2023-05-23T03:32:45;99372.64;;;10.13;70.29
76794;BME280;65745;50.278;18.192;2023-05-23T03:35:18;99372.33;;;10.15;70.39
76794;BME280;65745;50.278;18.192;2023-05-23T03:37:50;99374.52;;;10.22;70.65
76794;BME280;65745;50.278;18.192;2023-05-23T03:40:23;99372.72;;;10.31;70.65
76794;BME280;65745;50.278;18.192;2023-05-23T03:43:03;99366.80;;;10.38;70.37
76794;BME280;65745;50.278;18.192;2023-05-23T03:45:37;99367.97;;;10.50;70.09
76794;BME280;65745;50.278;18.192;2023-05-23T03:48:14;99364.69;;;10.49;69.86
76794;BME280;65745;50.278;18.192;2023-05-23T03:50:48;99361.25;;;10.49;69.92
76794;BME280;65745;50.278;18.192;2023-05-23T03:53:20;99362.98;;;10.51;71.15
76794;BME280;65745;50.278;18.192;2023-05-23T03:55:53;99362.57;;;10.44;70.76
76794;BME280;65745;50.278;18.192;2023-05-23T03:58:25;99363.55;;;10.39;72.84
76794;BME280;65745;50.278;18.192;2023-05-23T04:01:00;99363.16;;;10.37;72.91
76794;BME280;65745;50.278;18.192;2023-05-23T04:03:33;99365.14;;;10.42;73.39
76794;BME280;65745;50.278;18.192;2023-05-23T04:06:06;99366.85;;;10.43;75.04
76794;BME280;65745;50.278;18.192;2023-05-23T04:08:43;99364.27;;;10.43;75.94
76794;BME280;65745;50.278;18.192;2023-05-23T04:11:15;99365.68;;;10.46;75.63
76794;BME280;65745;50.278;18.192;2023-05-23T04:13:48;99368.27;;;10.62;73.11
76794;BME280;65745;50.278;18.192;2023-05-23T04:16:22;99367.23;;;10.78;74.20
76794;BME280;65745;50.278;18.192;2023-05-23T04:18:54;99360.69;;;10.77;74.39
76794;BME280;65745;50.278;18.192;2023-05-23T04:21:28;99358.16;;;10.82;73.47
76794;BME280;65745;50.278;18.192;2023-05-23T04:24:16;99351.57;;;10.96;72.55
76794;BME280;65745;50.278;18.192;2023-05-23T04:26:48;99349.57;;;11.04;72.93
76794;BME280;65745;50.278;18.192;2023-05-23T04:29:20;99347.56;;;11.09;73.12
76794;BME280;65745;50.278;18.192;2023-05-23T04:31:54;99351.09;;;11.20;73.64
76794;BME280;65745;50.278;18.192;2023-05-23T04:34:27;99350.64;;;11.27;72.72
76794;BME280;65745;50.278;18.192;2023-05-23T04:37:00;99355.05;;;11.38;72.48
76794;BME280;65745;50.278;18.192;2023-05-23T04:39:33;99351.69;;;11.51;72.25
76794;BME280;65745;50.278;18.192;2023-05-23T04:42:35;99349.36;;;11.63;72.08
76794;BME280;65745;50.278;18.192;2023-05-23T04:45:16;99344.31;;;11.79;71.62
76794;BME280;65745;50.278;18.192;2023-05-23T04:48:01;99349.07;;;11.95;72.08
76794;BME280;65745;50.278;18.192;2023-05-23T04:50:41;99347.75;;;12.07;72.25
76794;BME280;65745;50.278;18.192;2023-05-23T04:53:14;99344.88;;;12.20;71.26
76794;BME280;65745;50.278;18.192;2023-05-23T04:55:48;99343.89;;;12.32;70.77
76794;BME280;65745;50.278;18.192;2023-05-23T04:58:21;99342.91;;;12.50;70.86
76794;BME280;65745;50.278;18.192;2023-05-23T05:00:57;99344.52;;;12.72;70.78
76794;BME280;65745;50.278;18.192;2023-05-23T05:03:29;99349.05;;;12.86;70.05
76794;BME280;65745;50.278;18.192;2023-05-23T05:06:03;99349.05;;;12.90;70.40
76794;BME280;65745;50.278;18.192;2023-05-23T05:08:35;99350.44;;;12.92;70.80
76794;BME280;65745;50.278;18.192;2023-05-23T05:11:11;99348.55;;;12.99;69.91
76794;BME280;65745;50.278;18.192;2023-05-23T05:13:44;99343.38;;;13.08;70.25
76794;BME280;65745;50.278;18.192;2023-05-23T05:16:16;99337.89;;;13.25;70.11
76794;BME280;65745;50.278;18.192;2023-05-23T05:18:49;99335.28;;;13.42;70.22
76794;BME280;65745;50.278;18.192;2023-05-23T05:21:22;99332.85;;;13.54;69.70
76794;BME280;65745;50.278;18.192;2023-05-23T05:23:55;99333.17;;;13.68;70.12
76794;BME280;65745;50.278;18.192;2023-05-23T05:26:27;99327.42;;;13.83;69.85
76794;BME280;65745;50.278;18.192;2023-05-23T05:29:00;99329.11;;;14.00;69.22
76794;BME280;65745;50.278;18.192;2023-05-23T05:31:33;99329.77;;;14.12;68.88
76794;BME280;65745;50.278;18.192;2023-05-23T05:34:07;99334.97;;;14.14;68.59
76794;BME280;65745;50.278;18.192;2023-05-23T05:36:39;99332.69;;;14.17;68.35
76794;BME280;65745;50.278;18.192;2023-05-23T05:39:18;99323.85;;;14.18;68.10
76794;BME280;65745;50.278;18.192;2023-05-23T05:41:51;99321.41;;;14.23;68.02
76794;BME280;65745;50.278;18.192;2023-05-23T05:44:23;99329.33;;;14.34;68.00
76794;BME280;65745;50.278;18.192;2023-05-23T05:46:55;99327.60;;;14.41;67.72
76794;BME280;65745;50.278;18.192;2023-05-23T05:49:28;99325.47;;;14.51;67.83
76794;BME280;65745;50.278;18.192;2023-05-23T05:52:00;99323.50;;;14.62;67.83
76794;BME280;65745;50.278;18.192;2023-05-23T05:54:33;99321.54;;;14.72;67.69
76794;BME280;65745;50.278;18.192;2023-05-23T05:57:06;99322.67;;;14.83;68.13
76794;BME280;65745;50.278;18.192;2023-05-23T05:59:38;99320.52;;;14.95;68.13
76794;BME280;65745;50.278;18.192;2023-05-23T06:02:11;99320.10;;;15.02;67.64
76794;BME280;65745;50.278;18.192;2023-05-23T06:04:43;99324.95;;;15.05;67.19
76794;BME280;65745;50.278;18.192;2023-05-23T06:07:16;99324.04;;;15.12;66.66
76794;BME280;65745;50.278;18.192;2023-05-23T06:09:48;99316.71;;;15.15;66.33
76794;BME280;65745;50.278;18.192;2023-05-23T06:12:22;99319.10;;;15.21;66.07
76794;BME280;65745;50.278;18.192;2023-05-23T06:14:54;99318.13;;;15.33;65.65
76794;BME280;65745;50.278;18.192;2023-05-23T06:17:26;99319.09;;;15.41;65.32
76794;BME280;65745;50.278;18.192;2023-05-23T06:19:59;99315.61;;;15.43;65.13
76794;BME280;65745;50.278;18.192;2023-05-23T06:22:31;99311.91;;;15.52;65.10
76794;BME280;65745;50.278;18.192;2023-05-23T06:25:04;99316.72;;;15.58;65.24
76794;BME280;65745;50.278;18.192;2023-05-23T06:27:37;99309.63;;;15.71;64.84
76794;BME280;65745;50.278;18.192;2023-05-23T06:30:11;99307.60;;;15.83;64.68
76794;BME280;65745;50.278;18.192;2023-05-23T06:32:43;99306.81;;;15.90;64.71
76794;BME280;65745;50.278;18.192;2023-05-23T06:35:16;99305.45;;;16.04;64.83
76794;BME280;65745;50.278;18.192;2023-05-23T06:37:48;99302.73;;;16.13;64.80
76794;BME280;65745;50.278;18.192;2023-05-23T06:40:21;99300.70;;;16.23;65.00
76794;BME280;65745;50.278;18.192;2023-05-23T06:42:53;99300.02;;;16.36;64.48
76794;BME280;65745;50.278;18.192;2023-05-23T06:45:55;99298.01;;;16.43;64.20
76794;BME280;65745;50.278;18.192;2023-05-23T06:48:30;99293.15;;;16.55;64.27
76794;BME280;65745;50.278;18.192;2023-05-23T06:51:02;99286.27;;;16.75;64.16
76794;BME280;65745;50.278;18.192;2023-05-23T06:53:35;99282.62;;;16.98;63.57
76794;BME280;65745;50.278;18.192;2023-05-23T06:56:07;99282.08;;;17.20;63.31
76794;BME280;65745;50.278;18.192;2023-05-23T06:58:48;99277.77;;;17.38;62.70
76794;BME280;65745;50.278;18.192;2023-05-23T07:01:20;99276.81;;;17.53;62.75
76794;BME280;65745;50.278;18.192;2023-05-23T07:03:54;99273.06;;;17.68;62.39
76794;BME280;65745;50.278;18.192;2023-05-23T07:06:26;99273.53;;;17.89;62.37
76794;BME280;65745;50.278;18.192;2023-05-23T07:09:00;99269.28;;;18.09;61.86
76794;BME280;65745;50.278;18.192;2023-05-23T07:11:33;99269.84;;;18.23;61.04
76794;BME280;65745;50.278;18.192;2023-05-23T07:14:07;99269.98;;;18.25;59.91
76794;BME280;65745;50.278;18.192;2023-05-23T07:16:41;99265.00;;;18.30;60.12
76794;BME280;65745;50.278;18.192;2023-05-23T07:19:13;99263.30;;;18.36;59.90
76794;BME280;65745;50.278;18.192;2023-05-23T07:21:51;99260.66;;;18.45;59.10
76794;BME280;65745;50.278;18.192;2023-05-23T07:24:24;99255.65;;;18.51;59.35
76794;BME280;65745;50.278;18.192;2023-05-23T07:26:58;99251.92;;;18.70;59.18
76794;BME280;65745;50.278;18.192;2023-05-23T07:29:30;99247.69;;;18.80;58.88
76794;BME280;65745;50.278;18.192;2023-05-23T07:32:04;99245.49;;;18.91;58.17
76794;BME280;65745;50.278;18.192;2023-05-23T07:34:37;99248.69;;;19.10;57.91
76794;BME280;65745;50.278;18.192;2023-05-23T07:37:09;99246.67;;;19.34;57.49
76794;BME280;65745;50.278;18.192;2023-05-23T07:39:44;99243.60;;;19.52;57.08
76794;BME280;65745;50.278;18.192;2023-05-23T07:42:16;99241.00;;;19.64;56.61
76794;BME280;65745;50.278;18.192;2023-05-23T07:44:49;99238.15;;;19.78;56.61
76794;BME280;65745;50.278;18.192;2023-05-23T07:47:21;99231.50;;;19.97;55.84
76794;BME280;65745;50.278;18.192;2023-05-23T07:49:55;99229.05;;;20.09;55.69
76794;BME280;65745;50.278;18.192;2023-05-23T07:52:27;99229.25;;;20.25;55.18
76794;BME280;65745;50.278;18.192;2023-05-23T07:55:01;99226.89;;;20.47;54.71
76794;BME280;65745;50.278;18.192;2023-05-23T07:57:34;99223.53;;;20.64;54.37
76794;BME280;65745;50.278;18.192;2023-05-23T08:00:09;99223.84;;;20.87;54.31
76794;BME280;65745;50.278;18.192;2023-05-23T08:02:44;99221.19;;;21.09;54.11
76794;BME280;65745;50.278;18.192;2023-05-23T08:05:21;99216.94;;;21.36;53.90
76794;BME280;65745;50.278;18.192;2023-05-23T08:07:55;99218.75;;;21.69;53.24
76794;BME280;65745;50.278;18.192;2023-05-23T08:10:27;99225.08;;;21.93;50.99
76794;BME280;65745;50.278;18.192;2023-05-23T08:13:08;99225.02;;;22.09;51.29
76794;BME280;65745;50.278;18.192;2023-05-23T08:15:47;99221.41;;;22.02;50.98
76794;BME280;65745;50.278;18.192;2023-05-23T08:18:20;99218.15;;;22.10;50.94
76794;BME280;65745;50.278;18.192;2023-05-23T08:20:52;99216.95;;;22.23;50.36
76794;BME280;65745;50.278;18.192;2023-05-23T08:23:24;99215.25;;;22.48;51.12
76794;BME280;65745;50.278;18.192;2023-05-23T08:25:57;99215.71;;;22.76;50.74
76794;BME280;65745;50.278;18.192;2023-05-23T08:28:29;99215.56;;;23.02;50.41
76794;BME280;65745;50.278;18.192;2023-05-23T08:31:06;99215.48;;;23.28;49.73
76794;BME280;65745;50.278;18.192;2023-05-23T08:33:39;99214.20;;;23.46;48.69
76794;BME280;65745;50.278;18.192;2023-05-23T08:36:11;99213.45;;;23.59;48.67
76794;BME280;65745;50.278;18.192;2023-05-23T08:38:44;99213.11;;;23.63;48.49
76794;BME280;65745;50.278;18.192;2023-05-23T08:41:25;99212.67;;;23.72;48.62
76794;BME280;65745;50.278;18.192;2023-05-23T08:44:02;99212.74;;;23.79;48.23
76794;BME280;65745;50.278;18.192;2023-05-23T08:46:42;99209.14;;;23.96;47.78
76794;BME280;65745;50.278;18.192;2023-05-23T08:49:23;99202.65;;;24.19;47.44
76794;BME280;65745;50.278;18.192;2023-05-23T08:52:01;99204.95;;;24.41;47.33
76794;BME280;65745;50.278;18.192;2023-05-23T08:54:36;99206.38;;;24.63;46.69
76794;BME280;65745;50.278;18.192;2023-05-23T08:57:09;99207.88;;;24.65;46.73
76794;BME280;65745;50.278;18.192;2023-05-23T08:59:42;99204.70;;;24.68;46.11
76794;BME280;65745;50.278;18.192;2023-05-23T09:02:16;99199.23;;;24.65;46.01
76794;BME280;65745;50.278;18.192;2023-05-23T09:04:51;99199.50;;;24.77;43.73
76794;BME280;65745;50.278;18.192;2023-05-23T09:07:26;99196.86;;;24.95;45.04
76794;BME280;65745;50.278;18.192;2023-05-23T09:10:00;99195.01;;;25.24;45.07
76794;BME280;65745;50.278;18.192;2023-05-23T09:12:32;99191.96;;;25.50;44.91
76794;BME280;65745;50.278;18.192;2023-05-23T09:15:08;99189.75;;;25.65;44.62
76794;BME280;65745;50.278;18.192;2023-05-23T09:17:41;99187.55;;;25.79;43.66
76794;BME280;65745;50.278;18.192;2023-05-23T09:20:16;99182.69;;;25.98;43.93
76794;BME280;65745;50.278;18.192;2023-05-23T09:22:56;99182.05;;;26.15;43.18
76794;BME280;65745;50.278;18.192;2023-05-23T09:25:31;99182.20;;;26.32;43.52
76794;BME280;65745;50.278;18.192;2023-05-23T09:28:03;99179.13;;;26.49;42.58
76794;BME280;65745;50.278;18.192;2023-05-23T09:30:39;99179.98;;;26.59;41.15
76794;BME280;65745;50.278;18.192;2023-05-23T09:33:14;99176.18;;;26.73;41.11
76794;BME280;65745;50.278;18.192;2023-05-23T09:35:47;99176.88;;;26.82;40.72
76794;BME280;65745;50.278;18.192;2023-05-23T09:38:20;99175.28;;;26.92;40.30
76794;BME280;65745;50.278;18.192;2023-05-23T09:40:55;99172.94;;;27.10;40.41
76794;BME280;65745;50.278;18.192;2023-05-23T09:43:29;99165.32;;;27.28;40.14
76794;BME280;65745;50.278;18.192;2023-05-23T09:46:08;99163.78;;;27.51;40.16
76794;BME280;65745;50.278;18.192;2023-05-23T09:48:47;99158.30;;;27.76;39.10
76794;BME280;65745;50.278;18.192;2023-05-23T09:51:22;99150.06;;;27.86;38.34
76794;BME280;65745;50.278;18.192;2023-05-23T09:53:55;99146.21;;;28.08;38.91
76794;BME280;65745;50.278;18.192;2023-05-23T09:56:28;99143.44;;;28.45;37.14
76794;BME280;65745;50.278;18.192;2023-05-23T09:59:01;99146.88;;;28.85;37.04
76794;BME280;65745;50.278;18.192;2023-05-23T10:01:33;99146.07;;;29.17;35.11
76794;BME280;65745;50.278;18.192;2023-05-23T10:04:06;99143.05;;;29.39;34.45
76794;BME280;65745;50.278;18.192;2023-05-23T10:06:43;99140.52;;;29.39;34.36
76794;BME280;65745;50.278;18.192;2023-05-23T10:09:20;99139.34;;;29.35;33.78
76794;BME280;65745;50.278;18.192;2023-05-23T10:15:00;99144.02;;;29.95;33.68
76794;BME280;65745;50.278;18.192;2023-05-23T10:17:38;99146.06;;;30.11;34.27
76794;BME280;65745;50.278;18.192;2023-05-23T10:20:17;99149.86;;;30.17;33.83
76794;BME280;65745;50.278;18.192;2023-05-23T10:22:54;99148.94;;;29.98;33.88
76794;BME280;65745;50.278;18.192;2023-05-23T10:25:27;99150.08;;;29.60;33.21
76794;BME280;65745;50.278;18.192;2023-05-23T10:28:00;99146.46;;;29.19;32.35
76794;BME280;65745;50.278;18.192;2023-05-23T10:30:34;99141.86;;;28.72;32.70
76794;BME280;65745;50.278;18.192;2023-05-23T10:33:07;99134.65;;;28.44;33.10
76794;BME280;65745;50.278;18.192;2023-05-23T10:35:45;99128.63;;;28.06;34.35
76794;BME280;65745;50.278;18.192;2023-05-23T10:38:30;99133.95;;;27.64;34.45
76794;BME280;65745;50.278;18.192;2023-05-23T10:41:10;99141.27;;;27.19;35.12
76794;BME280;65745;50.278;18.192;2023-05-23T10:43:48;99143.20;;;26.71;35.20
76794;BME280;65745;50.278;18.192;2023-05-23T10:46:22;99163.16;;;26.28;35.58
76794;BME280;65745;50.278;18.192;2023-05-23T10:48:57;99197.18;;;25.81;37.95
76794;BME280;65745;50.278;18.192;2023-05-23T10:51:38;99211.79;;;25.31;39.53
76794;BME280;65745;50.278;18.192;2023-05-23T10:54:12;99208.90;;;24.58;41.70
76794;BME280;65745;50.278;18.192;2023-05-23T10:56:44;99222.14;;;23.89;43.80
76794;BME280;65745;50.278;18.192;2023-05-23T10:59:28;99234.84;;;23.27;44.55
76794;BME280;65745;50.278;18.192;2023-05-23T11:02:00;99241.42;;;22.57;46.17
76794;BME280;65745;50.278;18.192;2023-05-23T11:04:34;99241.39;;;22.02;47.86
76794;BME280;65745;50.278;18.192;2023-05-23T11:07:07;99246.73;;;21.61;49.18
76794;BME280;65745;50.278;18.192;2023-05-23T11:10:09;99250.50;;;21.23;50.31
76794;BME280;65745;50.278;18.192;2023-05-23T11:12:43;99254.02;;;20.96;50.34
76794;BME280;65745;50.278;18.192;2023-05-23T11:15:22;99263.76;;;20.65;50.95
76794;BME280;65745;50.278;18.192;2023-05-23T11:17:56;99271.63;;;20.48;51.25
76794;BME280;65745;50.278;18.192;2023-05-23T11:20:30;99291.56;;;20.31;52.08
76794;BME280;65745;50.278;18.192;2023-05-23T11:23:06;99295.75;;;20.06;53.61
76794;BME280;65745;50.278;18.192;2023-05-23T11:25:43;99301.78;;;19.78;55.06
76794;BME280;65745;50.278;18.192;2023-05-23T11:28:16;99312.48;;;19.42;57.80
76794;BME280;65745;50.278;18.192;2023-05-23T11:30:49;99326.98;;;19.14;58.44
76794;BME280;65745;50.278;18.192;2023-05-23T11:33:22;99339.86;;;18.78;60.62
76794;BME280;65745;50.278;18.192;2023-05-23T11:35:54;99333.88;;;18.47;61.86
76794;BME280;65745;50.278;18.192;2023-05-23T11:38:27;99331.36;;;18.25;64.33
76794;BME280;65745;50.278;18.192;2023-05-23T11:41:00;99321.86;;;18.13;65.70
76794;BME280;65745;50.278;18.192;2023-05-23T11:43:33;99313.82;;;18.05;66.13
76794;BME280;65745;50.278;18.192;2023-05-23T11:46:09;99310.16;;;18.05;66.28
76794;BME280;65745;50.278;18.192;2023-05-23T11:48:45;99302.89;;;18.11;65.54
76794;BME280;65745;50.278;18.192;2023-05-23T11:51:18;99293.73;;;18.24;65.98
76794;BME280;65745;50.278;18.192;2023-05-23T11:53:51;99285.05;;;18.38;64.99
76794;BME280;65745;50.278;18.192;2023-05-23T11:56:24;99275.60;;;18.48;64.54
76794;BME280;65745;50.278;18.192;2023-05-23T11:58:57;99269.91;;;18.54;65.60
76794;BME280;65745;50.278;18.192;2023-05-23T12:01:30;99274.19;;;18.58;64.31
76794;BME280;65745;50.278;18.192;2023-05-23T12:04:09;99275.91;;;18.59;65.17
76794;BME280;65745;50.278;18.192;2023-05-23T12:06:47;99273.15;;;18.57;65.40
76794;BME280;65745;50.278;18.192;2023-05-23T12:09:19;99265.39;;;18.52;64.86
76794;BME280;65745;50.278;18.192;2023-05-23T12:11:52;99255.00;;;18.49;66.03
76794;BME280;65745;50.278;18.192;2023-05-23T12:14:29;99250.92;;;18.52;65.29
76794;BME280;65745;50.278;18.192;2023-05-23T12:17:01;99252.59;;;18.56;65.55
76794;BME280;65745;50.278;18.192;2023-05-23T12:19:33;99247.11;;;18.60;65.56
76794;BME280;65745;50.278;18.192;2023-05-23T12:22:07;99246.05;;;18.68;65.39
76794;BME280;65745;50.278;18.192;2023-05-23T12:24:45;99243.77;;;18.76;65.17
76794;BME280;65745;50.278;18.192;2023-05-23T12:27:18;99241.53;;;18.82;65.80
76794;BME280;65745;50.278;18.192;2023-05-23T12:29:55;99237.30;;;18.91;66.43
76794;BME280;65745;50.278;18.192;2023-05-23T12:32:35;99234.96;;;19.00;67.53
76794;BME280;65745;50.278;18.192;2023-05-23T12:35:11;99227.80;;;19.07;67.53
76794;BME280;65745;50.278;18.192;2023-05-23T12:37:46;99222.47;;;19.11;67.03
76794;BME280;65745;50.278;18.192;2023-05-23T12:40:19;99210.98;;;19.09;66.57
76794;BME280;65745;50.278;18.192;2023-05-23T12:42:52;99203.02;;;19.07;66.10
76794;BME280;65745;50.278;18.192;2023-05-23T12:45:34;99199.11;;;19.10;67.34
76794;BME280;65745;50.278;18.192;2023-05-23T12:48:06;99197.93;;;19.15;66.69
76794;BME280;65745;50.278;18.192;2023-05-23T12:50:39;99196.22;;;19.20;67.12
76794;BME280;65745;50.278;18.192;2023-05-23T12:53:11;99186.99;;;19.39;66.87
76794;BME280;65745;50.278;18.192;2023-05-23T12:55:43;99189.59;;;19.53;66.52
76794;BME280;65745;50.278;18.192;2023-05-23T12:58:15;99189.39;;;19.91;65.87
76794;BME280;65745;50.278;18.192;2023-05-23T13:00:48;99183.94;;;20.38;65.80
76794;BME280;65745;50.278;18.192;2023-05-23T13:03:20;99183.48;;;20.79;65.49
76794;BME280;65745;50.278;18.192;2023-05-23T13:05:52;99180.43;;;21.07;64.76
76794;BME280;65745;50.278;18.192;2023-05-23T13:08:25;99174.11;;;21.29;64.94
76794;BME280;65745;50.278;18.192;2023-05-23T13:10:57;99169.11;;;21.46;64.34
76794;BME280;65745;50.278;18.192;2023-05-23T13:13:30;99168.90;;;21.61;63.88
76794;BME280;65745;50.278;18.192;2023-05-23T13:16:04;99170.98;;;21.67;63.20
76794;BME280;65745;50.278;18.192;2023-05-23T13:18:36;99172.31;;;21.78;62.77
76794;BME280;65745;50.278;18.192;2023-05-23T13:21:09;99172.38;;;21.85;62.40
76794;BME280;65745;50.278;18.192;2023-05-23T13:23:41;99173.55;;;22.02;62.63
76794;BME280;65745;50.278;18.192;2023-05-23T13:26:13;99168.66;;;22.14;62.15
76794;BME280;65745;50.278;18.192;2023-05-23T13:28:47;99166.00;;;22.24;61.63
76794;BME280;65745;50.278;18.192;2023-05-23T13:31:20;99164.63;;;22.32;61.32